Time;durP1;ratioP1;P1;durP2;ratioP2;P2;SDS_P1;SDS_P2;PMS_P1;PMS_P2;Temp;Humidity;BMP_temperature;BMP_pressure;BME280_temperature;BME280_humidity;BME280_pressure;Samples;Min_cycle;Max_cycle;Signal;HPM_P1;HPM_P2
2023/01/05 00:02:30;;;;;;;2.4;1.3;;;;;;;9;81.5;98360;;;;
2023/01/05 00:23:31;;;;;;;1.6;0.9;;;;;;;8.9;81.4;98340;;;;
2023/01/05 00:34:30;;;;;;;1.6;0.9;;;;;;;9;81.1;98330;;;;
2023/01/05 00:44:30;;;;;;;2.1;1.1;;;;;;;9;81.3;98320;;;;
2023/01/05 00:55:30;;;;;;;2.1;1.1;;;;;;;9;81.1;98320;;;;
2023/01/05 01:05:31;;;;;;;2.1;1.1;;;;;;;9.1;81;98290;;;;
2023/01/05 01:15:30;;;;;;;1.9;0.9;;;;;;;9;81.1;98270;;;;
2023/01/05 01:26:30;;;;;;;1.9;0.9;;;;;;;9;81.1;98280;;;;
2023/01/05 01:36:31;;;;;;;1.9;0.9;;;;;;;9;81;98250;;;;
2023/01/05 01:46:30;;;;;;;1.9;0.9;;;;;;;9.1;80.8;98250;;;;
2023/01/05 01:57:31;;;;;;;1.9;0.9;;;;;;;9.1;80.9;98230;;;;
2023/01/05 02:07:30;;;;;;;1.9;0.9;;;;;;;9.2;80.6;98220;;;;
2023/01/05 02:17:31;;;;;;;1.4;0.8;;;;;;;9.4;80.1;98180;;;;
2023/01/05 02:28:31;;;;;;;1.4;0.8;;;;;;;9.6;80.9;98170;;;;
2023/01/05 02:38:30;;;;;;;1.4;0.8;;;;;;;9.5;81.1;98160;;;;
2023/01/05 02:48:31;;;;;;;2.4;1;;;;;;;9.4;81.7;98160;;;;
2023/01/05 02:59:31;;;;;;;2.4;1;;;;;;;9.4;81.6;98160;;;;
2023/01/05 03:09:35;;;;;;;2.4;1;;;;;;;9.6;80.8;98140;;;;
2023/01/05 03:19:34;;;;;;;1.6;0.7;;;;;;;9.8;79.4;98110;;;;
2023/01/05 03:41:31;;;;;;;1.6;0.7;;;;;;;10.1;78;98070;;;;
2023/01/05 03:52:31;;;;;;;1.4;0.8;;;;;;;10.4;75.7;98070;;;;
2023/01/05 04:02:31;;;;;;;1.4;0.8;;;;;;;10.7;74.6;98060;;;;
2023/01/05 04:13:31;;;;;;;1.4;0.8;;;;;;;10.6;74.7;98050;;;;
2023/01/05 04:24:31;;;;;;;1.4;0.8;;;;;;;10.7;74.3;98060;;;;
2023/01/05 04:34:31;;;;;;;1.4;0.8;;;;;;;10.6;75.4;98050;;;;
2023/01/05 04:45:31;;;;;;;1.8;0.8;;;;;;;10.5;76.7;98060;;;;
2023/01/05 04:55:31;;;;;;;1.8;0.8;;;;;;;10.4;76.7;98050;;;;
2023/01/05 05:06:31;;;;;;;1.8;0.8;;;;;;;10.5;75.6;98040;;;;
2023/01/05 05:16:31;;;;;;;2.2;1;;;;;;;10.5;75.6;98040;;;;
2023/01/05 05:27:31;;;;;;;2.2;1;;;;;;;10.7;76;98020;;;;
2023/01/05 05:37:31;;;;;;;2.2;1;;;;;;;10.7;77;98030;;;;
2023/01/05 05:48:31;;;;;;;1.1;0.6;;;;;;;10.6;77.9;98030;;;;
2023/01/05 05:58:31;;;;;;;1.1;0.6;;;;;;;10.4;78.7;98040;;;;
2023/01/05 06:09:31;;;;;;;1.1;0.6;;;;;;;10.4;79.2;98020;;;;
2023/01/05 06:19:31;;;;;;;2.8;1.4;;;;;;;10.4;79.4;98060;;;;
2023/01/05 06:29:31;;;;;;;2.8;1.4;;;;;;;10.2;81.2;98060;;;;
2023/01/05 06:40:31;;;;;;;2.8;1.4;;;;;;;9.7;84.2;98060;;;;
2023/01/05 06:51:31;;;;;;;4.8;2.6;;;;;;;9.5;85.3;98050;;;;
2023/01/05 07:01:31;;;;;;;4.8;2.6;;;;;;;9.4;86.2;98040;;;;
2023/01/05 07:12:31;;;;;;;2.9;1.6;;;;;;;9.4;86.1;98060;;;;
2023/01/05 07:23:31;;;;;;;2.9;1.6;;;;;;;9.5;85.8;98080;;;;
2023/01/05 07:33:31;;;;;;;2.9;1.6;;;;;;;9.4;86.8;98120;;;;
2023/01/05 07:43:31;;;;;;;7.3;2.6;;;;;;;9.1;89;98150;;;;
2023/01/05 07:53:31;;;;;;;7.3;2.6;;;;;;;8.8;89.3;98180;;;;
2023/01/05 08:03:31;;;;;;;7.3;2.6;;;;;;;8.7;89.3;98190;;;;
2023/01/05 08:14:31;;;;;;;4.5;2.5;;;;;;;8.6;89.6;98180;;;;
2023/01/05 08:24:31;;;;;;;4.5;2.5;;;;;;;8.3;89.4;98200;;;;
2023/01/05 08:35:31;;;;;;;4.5;2.5;;;;;;;8;89.5;98200;;;;
2023/01/05 08:46:31;;;;;;;3.9;2.1;;;;;;;8;89.5;98210;;;;
2023/01/05 08:56:31;;;;;;;3.9;2.1;;;;;;;8;88.5;98210;;;;
2023/01/05 09:06:31;;;;;;;3.9;2.1;;;;;;;8.1;88.1;98200;;;;
2023/01/05 09:16:31;;;;;;;4.3;1.9;;;;;;;8.1;87.9;98200;;;;
2023/01/05 09:26:31;;;;;;;4.3;1.9;;;;;;;8.2;87.6;98200;;;;
2023/01/05 09:36:31;;;;;;;4.3;1.9;;;;;;;8.4;87.1;98180;;;;
2023/01/05 09:46:31;;;;;;;5.3;2.5;;;;;;;8.8;86.1;98190;;;;
2023/01/05 09:57:31;;;;;;;5.3;2.5;;;;;;;9;85.5;98180;;;;
2023/01/05 10:08:31;;;;;;;5.3;2.5;;;;;;;9.1;85.2;98170;;;;
2023/01/05 10:19:31;;;;;;;6.3;3.3;;;;;;;9.1;84.9;98160;;;;
2023/01/05 10:30:31;;;;;;;6.3;3.3;;;;;;;9.3;83;98160;;;;
2023/01/05 10:40:31;;;;;;;6.3;3.3;;;;;;;9.5;82.1;98140;;;;
2023/01/05 10:50:31;;;;;;;9.4;3;;;;;;;9.7;81.8;98140;;;;
2023/01/05 11:01:31;;;;;;;9.4;3;;;;;;;9.8;79.6;98130;;;;
2023/01/05 11:11:31;;;;;;;6.9;3.3;;;;;;;10;79.2;98130;;;;
2023/01/05 11:22:31;;;;;;;6.9;3.3;;;;;;;10;78.6;98110;;;;
2023/01/05 11:32:31;;;;;;;6.9;3.3;;;;;;;10.1;78.4;98110;;;;
2023/01/05 11:43:31;;;;;;;5.6;3;;;;;;;10.1;77.9;98090;;;;
2023/01/05 11:54:31;;;;;;;5.6;3;;;;;;;10.2;76.5;98100;;;;
2023/01/05 12:05:31;;;;;;;5.6;3;;;;;;;10.4;75.4;98100;;;;
2023/01/05 12:15:31;;;;;;;4.5;2.4;;;;;;;10.4;76.2;98110;;;;
2023/01/05 12:26:31;;;;;;;4.5;2.4;;;;;;;10.3;76.2;98100;;;;
2023/01/05 12:36:31;;;;;;;4.5;2.4;;;;;;;10.3;75.5;98110;;;;
2023/01/05 12:47:31;;;;;;;5.2;2.5;;;;;;;10.3;74.6;98110;;;;
2023/01/05 12:57:31;;;;;;;5.2;2.5;;;;;;;10.1;76.6;98110;;;;
2023/01/05 13:07:31;;;;;;;5.2;2.5;;;;;;;9.9;77.6;98100;;;;
2023/01/05 13:17:31;;;;;;;6.1;3;;;;;;;10;78.8;98110;;;;
2023/01/05 13:28:31;;;;;;;6.1;3;;;;;;;10;78;98090;;;;
2023/01/05 13:39:31;;;;;;;6.1;3;;;;;;;10.2;74.9;98090;;;;
2023/01/05 13:49:31;;;;;;;7.1;3.5;;;;;;;10.2;74.8;98100;;;;
2023/01/05 13:59:31;;;;;;;7.1;3.5;;;;;;;10.2;73.6;98120;;;;
2023/01/05 14:10:31;;;;;;;7.1;3.5;;;;;;;9.6;78.2;98230;;;;
2023/01/05 14:20:31;;;;;;;6.8;2.9;;;;;;;7.7;85.9;98290;;;;
2023/01/05 14:30:31;;;;;;;6.8;2.9;;;;;;;7.1;87.5;98290;;;;
2023/01/05 14:41:31;;;;;;;2.5;1.4;;;;;;;6.7;86.9;98240;;;;
2023/01/05 14:51:31;;;;;;;2.5;1.4;;;;;;;6.6;88;98280;;;;
2023/01/05 15:01:31;;;;;;;2.5;1.4;;;;;;;6.7;87.3;98240;;;;
2023/01/05 15:11:31;;;;;;;3.1;1.3;;;;;;;6.6;86.7;98250;;;;
2023/01/05 15:22:31;;;;;;;3.1;1.3;;;;;;;6.5;88.6;98260;;;;
2023/01/05 15:33:33;;;;;;;3.1;1.3;;;;;;;6.5;90;98260;;;;
2023/01/05 15:44:31;;;;;;;3.9;2.4;;;;;;;6.6;91;98270;;;;
2023/01/05 15:55:31;;;;;;;3.9;2.4;;;;;;;6.8;90.9;98280;;;;
2023/01/05 16:06:31;;;;;;;3.9;2.4;;;;;;;6.9;90.8;98290;;;;
2023/01/05 16:16:32;;;;;;;10.2;4.8;;;;;;;7.1;88.5;98290;;;;
2023/01/05 16:27:31;;;;;;;10.2;4.8;;;;;;;7.4;85.6;98280;;;;
2023/01/05 16:37:31;;;;;;;10.2;4.8;;;;;;;7.6;85.4;98290;;;;
2023/01/05 16:47:31;;;;;;;8.7;4.3;;;;;;;7.7;83.7;98270;;;;
2023/01/05 16:58:31;;;;;;;8.7;4.3;;;;;;;7.8;85;98300;;;;
2023/01/05 17:09:33;;;;;;;8.7;4.3;;;;;;;7.8;84.9;98340;;;;
2023/01/05 17:20:31;;;;;;;6.4;3.2;;;;;;;7;87.9;98390;;;;
2023/01/05 17:30:31;;;;;;;6.4;3.2;;;;;;;6.8;88.9;98390;;;;
2023/01/05 17:40:31;;;;;;;6.4;3.2;;;;;;;6.7;89.5;98420;;;;
2023/01/05 17:51:31;;;;;;;5.7;2.7;;;;;;;6.7;89.9;98430;;;;
2023/01/05 18:01:32;;;;;;;5.7;2.7;;;;;;;6.8;89.5;98440;;;;
2023/01/05 18:11:31;;;;;;;8.8;5.5;;;;;;;6.8;89;98460;;;;
2023/01/05 18:22:31;;;;;;;8.8;5.5;;;;;;;6.9;88.9;98460;;;;
2023/01/05 18:32:31;;;;;;;8.8;5.5;;;;;;;6.8;88;98470;;;;
2023/01/05 18:42:31;;;;;;;7;3.3;;;;;;;6.8;87.5;98480;;;;
2023/01/05 18:53:31;;;;;;;7;3.3;;;;;;;6.8;86.4;98510;;;;
2023/01/05 19:04:31;;;;;;;7;3.3;;;;;;;6.9;83.8;98530;;;;
2023/01/05 19:15:32;;;;;;;7.8;4.8;;;;;;;6.9;83;98540;;;;
2023/01/05 19:25:31;;;;;;;7.8;4.8;;;;;;;7;81.1;98570;;;;
2023/01/05 19:35:31;;;;;;;7.8;4.8;;;;;;;7.1;81.1;98570;;;;
2023/01/05 19:46:34;;;;;;;6.5;3.9;;;;;;;7.1;80.8;98590;;;;
2023/01/05 19:56:32;;;;;;;6.5;3.9;;;;;;;7.1;81.2;98600;;;;
2023/01/05 20:07:31;;;;;;;6.5;3.9;;;;;;;7.1;80.2;98640;;;;
2023/01/05 20:17:32;;;;;;;7.6;3.1;;;;;;;6.9;81.8;98650;;;;
2023/01/05 20:27:31;;;;;;;7.6;3.1;;;;;;;6.8;83.9;98680;;;;
2023/01/05 20:38:31;;;;;;;7.6;3.1;;;;;;;6.8;83;98690;;;;
2023/01/05 20:49:31;;;;;;;4.9;2.6;;;;;;;6.6;85.3;98720;;;;
2023/01/05 20:59:31;;;;;;;4.9;2.6;;;;;;;6.5;85.9;98730;;;;
2023/01/05 21:09:32;;;;;;;4.9;2.6;;;;;;;6.4;84.6;98760;;;;
2023/01/05 21:19:32;;;;;;;5;2.5;;;;;;;6.2;82.2;98780;;;;
2023/01/05 21:29:31;;;;;;;5;2.5;;;;;;;6;82.2;98790;;;;
2023/01/05 21:40:31;;;;;;;5.7;2.5;;;;;;;5.9;82.2;98810;;;;
2023/01/05 22:01:32;;;;;;;5.7;2.5;;;;;;;5.7;80.3;98860;;;;
2023/01/05 22:12:31;;;;;;;3.5;2.2;;;;;;;5.6;80.1;98860;;;;
2023/01/05 22:22:31;;;;;;;3.5;2.2;;;;;;;5.5;80.4;98870;;;;
2023/01/05 22:32:31;;;;;;;3.5;2.2;;;;;;;5.3;80.5;98890;;;;
2023/01/05 22:43:32;;;;;;;6.1;2.9;;;;;;;5.2;81;98910;;;;
2023/01/05 22:53:32;;;;;;;6.1;2.9;;;;;;;5.3;81;98930;;;;
2023/01/05 23:04:32;;;;;;;6.1;2.9;;;;;;;5.4;80.9;98950;;;;
2023/01/05 23:15:31;;;;;;;4.3;2.4;;;;;;;5.5;81;98950;;;;
2023/01/05 23:25:32;;;;;;;4.3;2.4;;;;;;;5.5;80.7;98980;;;;
2023/01/05 23:36:31;;;;;;;4.3;2.4;;;;;;;5.5;80.7;99000;;;;
2023/01/05 23:47:31;;;;;;;8.2;2.9;;;;;;;5.6;79.5;99020;;;;
2023/01/05 23:58:32;;;;;;;8.2;2.9;;;;;;;5.5;78.3;99030;;;;
